Time;durP1;ratioP1;P1;durP2;ratioP2;P2;SDS_P1;SDS_P2;PMS_P1;PMS_P2;Temp;Humidity;BMP_temperature;BMP_pressure;BME280_temperature;BME280_humidity;BME280_pressure;Samples;Min_cycle;Max_cycle;Signal;HPM_P1;HPM_P2
2021/09/30 00:01:41;;;;;;;38.65;27.17;;;;;;;13.80;80.29;97708.17;1698008;81;27353;-87
2021/09/30 00:04:08;;;;;;;36.88;26.45;;;;;;;13.81;80.28;97717.98;1697843;81;25674;-89
2021/09/30 00:06:35;;;;;;;33.90;26.40;;;;;;;13.81;80.30;97713.91;1697942;81;25695;-89
2021/09/30 00:09:01;;;;;;;39.78;28.65;;;;;;;13.83;80.33;97717.23;1721601;81;25748;-87
2021/09/30 00:11:30;;;;;;;38.67;25.97;;;;;;;13.84;80.36;97718.06;1727087;81;25687;-87
2021/09/30 00:17:18;;;;;;;38.53;25.40;;;;;;;13.81;80.46;97716.63;1726980;81;26430;-88
2021/09/30 00:41:22;;;;;;;35.15;27.27;;;;;;;13.84;80.78;97707.21;1622341;86;27618;-86
2021/09/30 00:46:42;;;;;;;40.60;27.10;;;;;;;13.82;80.75;97714.74;1710940;81;25818;-87
2021/09/30 01:20:34;;;;;;;43.35;32.23;;;;;;;13.77;81.20;97714.05;1766786;81;25759;-88
2021/09/30 02:21:14;;;;;;;29.48;21.05;;;;;;;13.83;81.40;97758.46;1740590;79;25744;-83
2021/09/30 02:29:26;;;;;;;6.90;5.67;;;;;;;13.58;81.77;97765.26;1736554;79;25698;-86
2021/09/30 02:58:06;;;;;;;11.00;7.70;;;;;;;13.45;82.21;97772.97;1766501;81;25748;-84
2021/09/30 02:59:33;;;;;;;9.70;8.33;;;;;;;13.56;82.06;97788.53;1713377;81;28533;-85
2021/09/30 03:02:02;;;;;;;9.80;8.78;;;;;;;13.56;82.04;97792.59;1719568;81;25265;-84
2021/09/30 03:04:31;;;;;;;11.93;9.13;;;;;;;13.55;82.03;97800.42;1732828;81;25867;-85
2021/09/30 03:07:00;;;;;;;14.07;8.63;;;;;;;13.60;82.05;97806.56;1732494;81;25728;-84
2021/09/30 03:09:42;;;;;;;9.95;8.45;;;;;;;13.61;82.04;97801.44;1707125;82;25271;-84
2021/09/30 03:12:21;;;;;;;8.60;7.70;;;;;;;13.65;82.03;97799.92;1699649;84;27705;-83
2021/09/30 03:14:46;;;;;;;10.15;8.03;;;;;;;13.63;81.93;97801.53;1731082;81;25824;-84
2021/09/30 03:17:17;;;;;;;9.93;8.23;;;;;;;13.58;81.95;97807.30;1731808;81;25892;-84
2021/09/30 03:19:59;;;;;;;11.03;8.70;;;;;;;13.55;82.02;97807.73;1725588;82;25712;-84
2021/09/30 03:22:20;;;;;;;9.98;8.48;;;;;;;13.51;82.05;97808.72;1715737;81;25740;-84
2021/09/30 03:24:50;;;;;;;10.25;8.90;;;;;;;13.52;82.14;97817.16;1732816;81;27501;-85
2021/09/30 03:27:19;;;;;;;11.73;8.85;;;;;;;13.54;82.19;97807.42;1732527;81;25804;-83
2021/09/30 03:29:46;;;;;;;11.65;9.03;;;;;;;13.55;82.19;97807.20;1732774;81;25756;-83
2021/09/30 03:32:13;;;;;;;13.38;10.00;;;;;;;13.57;82.20;97815.13;1732749;81;25763;-86
2021/09/30 03:34:40;;;;;;;11.12;9.28;;;;;;;13.59;82.18;97814.39;1732831;81;25805;-85
2021/09/30 03:37:07;;;;;;;11.00;9.58;;;;;;;13.57;82.14;97809.18;1732766;81;28114;-85
2021/09/30 03:39:33;;;;;;;10.68;9.38;;;;;;;13.57;82.19;97812.41;1732676;81;25900;-85
2021/09/30 03:42:00;;;;;;;10.75;8.80;;;;;;;13.56;82.21;97809.39;1732686;81;25701;-85
2021/09/30 03:44:27;;;;;;;10.70;9.05;;;;;;;13.56;82.21;97808.03;1732882;81;25720;-85
2021/09/30 03:46:53;;;;;;;10.03;8.85;;;;;;;13.56;82.22;97810.75;1732903;81;26233;-86
2021/09/30 03:49:33;;;;;;;12.50;9.10;;;;;;;13.56;82.28;97812.94;1732503;81;26754;-85
2021/09/30 03:52:05;;;;;;;11.55;9.45;;;;;;;13.57;82.31;97814.60;1729104;81;25745;-85
2021/09/30 03:54:39;;;;;;;11.15;9.00;;;;;;;13.56;82.29;97816.17;1731115;81;25767;-84
2021/09/30 03:57:06;;;;;;;11.28;9.70;;;;;;;13.55;82.27;97817.22;1699698;82;26182;-83
2021/09/30 03:59:30;;;;;;;11.45;9.45;;;;;;;13.55;82.31;97824.00;1724635;82;25759;-83
2021/09/30 04:01:59;;;;;;;10.15;9.05;;;;;;;13.57;82.32;97828.69;1705748;82;28161;-85
2021/09/30 04:04:32;;;;;;;11.68;9.88;;;;;;;13.59;82.35;97832.02;1706314;82;25725;-84
2021/09/30 04:07:02;;;;;;;11.90;8.80;;;;;;;13.60;82.32;97831.80;1726236;82;25790;-84
2021/09/30 04:09:30;;;;;;;12.20;9.08;;;;;;;13.57;82.32;97835.47;1723271;80;26374;-85
2021/09/30 04:12:01;;;;;;;10.80;9.23;;;;;;;13.55;82.36;97836.20;1740229;79;25744;-83
2021/09/30 04:14:28;;;;;;;11.45;9.48;;;;;;;13.56;82.44;97840.59;1732585;79;27446;-83
2021/09/30 04:16:55;;;;;;;13.90;9.75;;;;;;;13.57;82.49;97842.25;1750548;79;25766;-83
2021/09/30 04:19:23;;;;;;;11.25;9.75;;;;;;;13.58;82.49;97842.03;1763844;79;25723;-83
2021/09/30 04:21:53;;;;;;;10.18;8.90;;;;;;;13.62;82.45;97850.57;1733397;81;25377;-84
2021/09/30 04:24:21;;;;;;;9.83;8.68;;;;;;;13.62;82.40;97854.12;1744655;79;25563;-83
2021/09/30 04:26:50;;;;;;;12.85;9.78;;;;;;;13.63;82.44;97853.59;1738368;79;28075;-83
2021/09/30 04:29:18;;;;;;;10.85;9.48;;;;;;;13.62;82.44;97856.00;1751528;79;25697;-83
2021/09/30 04:31:46;;;;;;;11.10;9.78;;;;;;;13.60;82.41;97855.38;1738652;79;26322;-83
2021/09/30 04:34:14;;;;;;;10.93;9.78;;;;;;;13.60;82.48;97861.64;1757549;79;25377;-84
2021/09/30 04:36:41;;;;;;;13.10;9.53;;;;;;;13.58;82.49;97863.73;1762457;79;25749;-84
2021/09/30 04:39:08;;;;;;;13.13;9.80;;;;;;;13.56;82.53;97863.12;1743983;79;28039;-85
2021/09/30 04:41:34;;;;;;;11.10;9.60;;;;;;;13.55;82.58;97866.05;1732685;80;25847;-84
2021/09/30 04:44:01;;;;;;;13.38;9.83;;;;;;;13.53;82.60;97865.42;1722877;80;25524;-84
2021/09/30 04:46:28;;;;;;;13.15;9.75;;;;;;;13.52;82.66;97864.63;1723012;80;25705;-83
2021/09/30 04:48:55;;;;;;;12.58;10.58;;;;;;;13.53;82.70;97872.20;1675862;82;25742;-84
2021/09/30 04:51:21;;;;;;;12.75;10.18;;;;;;;13.55;82.65;97871.47;1731761;80;27425;-84
2021/09/30 04:53:48;;;;;;;16.50;10.68;;;;;;;13.55;82.65;97872.82;1703399;82;25696;-83
2021/09/30 04:56:15;;;;;;;13.22;11.45;;;;;;;13.53;82.71;97870.84;1734420;82;25741;-85
2021/09/30 04:58:43;;;;;;;13.80;11.35;;;;;;;13.48;82.75;97867.98;1725709;81;25720;-85
2021/09/30 05:01:10;;;;;;;14.30;11.55;;;;;;;13.46;82.83;97876.85;1752387;81;25802;-86
2021/09/30 05:03:36;;;;;;;14.30;11.83;;;;;;;13.47;82.91;97875.80;1698538;82;28388;-85
2021/09/30 05:06:04;;;;;;;22.95;17.25;;;;;;;13.47;82.95;97876.64;1704720;82;25350;-86
2021/09/30 05:08:33;;;;;;;26.62;20.82;;;;;;;13.45;82.94;97881.45;1704616;82;25779;-85
2021/09/30 05:11:00;;;;;;;26.75;20.32;;;;;;;13.46;82.97;97887.17;1707316;82;26225;-86
2021/09/30 05:13:36;;;;;;;22.67;18.42;;;;;;;13.47;83.00;97882.06;1726292;82;25697;-85
2021/09/30 05:15:55;;;;;;;22.82;17.50;;;;;;;13.50;83.01;97887.58;1729518;81;27470;-86
2021/09/30 05:18:21;;;;;;;21.25;16.20;;;;;;;13.52;83.06;97894.45;1711213;82;26978;-86
2021/09/30 05:20:48;;;;;;;19.65;15.45;;;;;;;13.56;83.09;97897.55;1739708;80;26446;-86
2021/09/30 05:23:14;;;;;;;18.27;14.45;;;;;;;13.56;83.09;97895.66;1704806;83;25761;-86
2021/09/30 05:25:41;;;;;;;17.00;13.13;;;;;;;13.58;83.06;97899.00;1752572;81;26401;-85
2021/09/30 05:28:08;;;;;;;18.82;12.98;;;;;;;13.62;83.01;97903.47;1710927;83;27476;-85
2021/09/30 05:30:34;;;;;;;15.43;11.75;;;;;;;13.66;83.03;97908.73;1719321;82;25823;-86
2021/09/30 05:33:01;;;;;;;14.23;11.35;;;;;;;13.67;83.02;97897.67;1734274;81;25695;-85
2021/09/30 05:35:30;;;;;;;12.93;11.10;;;;;;;13.67;83.00;97911.77;1731592;81;25715;-85
2021/09/30 05:37:56;;;;;;;13.93;11.88;;;;;;;13.69;83.02;97914.57;1727159;81;25739;-86
2021/09/30 05:40:23;;;;;;;14.30;12.18;;;;;;;13.71;83.02;97913.00;1727244;82;27535;-85
2021/09/30 05:42:53;;;;;;;17.95;13.50;;;;;;;13.70;82.99;97914.88;1722469;81;25872;-84
2021/09/30 05:45:19;;;;;;;16.45;13.15;;;;;;;13.73;83.03;97912.78;1701988;82;25915;-85
2021/09/30 05:47:47;;;;;;;19.02;13.48;;;;;;;13.73;83.06;97921.75;1718759;81;25861;-86
2021/09/30 05:50:15;;;;;;;16.10;12.30;;;;;;;13.76;83.14;97917.78;1721673;82;25655;-86
2021/09/30 05:52:42;;;;;;;16.90;12.15;;;;;;;13.79;83.16;97920.86;1730414;82;27373;-87
2021/09/30 05:55:10;;;;;;;18.35;12.80;;;;;;;13.78;83.06;97925.98;1730377;82;25790;-86
2021/09/30 05:57:37;;;;;;;15.28;12.20;;;;;;;13.79;83.11;97930.88;1730338;82;25734;-87
2021/09/30 06:00:13;;;;;;;19.10;13.40;;;;;;;13.82;83.14;97936.72;1730466;82;25711;-86
2021/09/30 06:10:54;;;;;;;16.42;12.95;;;;;;;13.85;83.06;97945.78;1710693;81;25762;-87
2021/09/30 06:13:31;;;;;;;17.27;13.43;;;;;;;13.87;83.03;97953.19;1731737;81;26128;-87
2021/09/30 06:15:51;;;;;;;48.78;16.05;;;;;;;13.88;83.10;97950.78;1730585;81;25771;-86
2021/09/30 06:18:17;;;;;;;29.55;16.52;;;;;;;13.92;83.13;97960.65;1732467;81;27571;-89
2021/09/30 06:20:44;;;;;;;19.05;15.10;;;;;;;13.96;83.17;97958.64;1732369;81;25744;-89
2021/09/30 06:23:10;;;;;;;22.55;16.95;;;;;;;13.95;83.13;97951.55;1732272;81;25697;-89
2021/09/30 06:25:37;;;;;;;22.00;17.50;;;;;;;13.94;83.09;97943.10;1718679;81;26111;-89
2021/09/30 06:28:05;;;;;;;20.82;16.67;;;;;;;13.93;83.12;97945.51;1710861;81;25298;-92
2021/09/30 06:30:32;;;;;;;21.25;18.60;;;;;;;13.93;83.18;97959.08;1712838;82;28387;-89
2021/09/30 06:32:58;;;;;;;23.38;18.65;;;;;;;13.96;83.29;97965.43;1711284;82;25900;-90
2021/09/30 06:35:25;;;;;;;20.82;17.35;;;;;;;14.00;83.24;97970.73;1714490;82;25854;-89
2021/09/30 06:37:51;;;;;;;22.13;17.70;;;;;;;14.02;83.25;97973.20;1714687;82;25715;-88
2021/09/30 06:40:18;;;;;;;21.12;17.55;;;;;;;14.05;83.26;97979.03;1717912;81;25740;-90
2021/09/30 06:42:45;;;;;;;22.95;17.55;;;;;;;14.10;83.23;97982.46;1731128;82;27362;-90
2021/09/30 06:45:12;;;;;;;19.32;15.80;;;;;;;14.12;83.14;97983.08;1707510;82;26499;-90
2021/09/30 06:47:38;;;;;;;18.48;14.98;;;;;;;14.15;83.01;97980.42;1702062;82;25754;-90
2021/09/30 06:50:08;;;;;;;18.82;14.73;;;;;;;14.14;82.87;97986.91;1710864;81;25446;-90
2021/09/30 06:52:35;;;;;;;21.45;15.15;;;;;;;14.13;82.80;97985.27;1706530;82;25819;-90
2021/09/30 06:55:02;;;;;;;20.23;14.78;;;;;;;14.13;82.78;97989.34;1714681;82;27431;-89
2021/09/30 06:57:29;;;;;;;17.87;15.10;;;;;;;14.11;82.80;97986.01;1711027;82;25780;-90
2021/09/30 07:00:00;;;;;;;24.10;16.27;;;;;;;14.10;82.87;97992.48;1701956;82;26190;-90
2021/09/30 07:02:25;;;;;;;24.63;17.65;;;;;;;14.09;82.83;98001.68;1712944;82;26334;-90
2021/09/30 07:04:52;;;;;;;23.30;17.82;;;;;;;14.10;82.84;98008.25;1714549;82;25725;-90
2021/09/30 07:07:19;;;;;;;25.17;19.00;;;;;;;14.11;82.82;98006.37;1714707;82;27602;-91
2021/09/30 07:09:46;;;;;;;26.60;20.77;;;;;;;14.12;82.78;98007.52;1721759;82;25842;-89
2021/09/30 07:12:13;;;;;;;32.73;23.35;;;;;;;14.12;82.72;98003.97;1735728;80;25689;-92
2021/09/30 07:14:41;;;;;;;33.95;24.25;;;;;;;14.14;82.71;98003.19;1745430;79;25703;-90
2021/09/30 07:17:08;;;;;;;30.65;23.00;;;;;;;14.17;82.62;98009.02;1733398;81;25770;-85
2021/09/30 07:19:36;;;;;;;32.00;23.30;;;;;;;14.17;82.58;98008.19;1758272;79;28293;-88
2021/09/30 07:22:05;;;;;;;29.82;23.52;;;;;;;14.18;82.57;98012.58;1740244;80;25729;-86
2021/09/30 07:24:33;;;;;;;32.23;24.23;;;;;;;14.19;82.58;98018.31;1751300;79;26336;-87
2021/09/30 07:27:00;;;;;;;32.90;24.47;;;;;;;14.19;82.51;98021.03;1743499;81;26102;-87
2021/09/30 07:29:26;;;;;;;32.17;24.57;;;;;;;14.20;82.47;98027.59;1755664;79;25440;-90
2021/09/30 07:31:53;;;;;;;34.50;25.92;;;;;;;14.22;82.36;98030.09;1751676;79;28383;-95
2021/09/30 07:34:20;;;;;;;33.95;25.12;;;;;;;14.19;81.94;98035.96;1759452;79;25688;-93
2021/09/30 07:36:47;;;;;;;27.55;21.02;;;;;;;14.15;81.65;98037.44;1763964;79;25715;-90
2021/09/30 07:39:16;;;;;;;31.15;22.55;;;;;;;14.02;81.21;98036.47;1755111;79;26255;-87
2021/09/30 07:41:45;;;;;;;29.02;21.52;;;;;;;13.92;80.91;98044.26;1758672;79;25719;-91
2021/09/30 07:44:13;;;;;;;25.32;19.82;;;;;;;13.84;80.79;98052.66;1756860;79;27415;-87
2021/09/30 07:46:42;;;;;;;28.52;20.85;;;;;;;13.76;80.57;98052.92;1755437;79;26337;-89
2021/09/30 07:49:09;;;;;;;30.55;18.92;;;;;;;13.69;80.66;98055.64;1745879;81;25687;-88
2021/09/30 07:51:37;;;;;;;26.68;19.20;;;;;;;13.65;80.54;98049.50;1762811;79;25799;-89
2021/09/30 07:54:06;;;;;;;25.88;18.52;;;;;;;13.63;80.48;98052.45;1754773;79;25882;-90
2021/09/30 07:56:34;;;;;;;25.05;19.05;;;;;;;13.58;80.32;98045.98;1750320;79;28166;-89
2021/09/30 07:59:00;;;;;;;28.15;18.48;;;;;;;13.55;80.33;98050.48;1750260;79;25883;-88
2021/09/30 08:01:27;;;;;;;27.30;19.27;;;;;;;13.54;80.43;98057.78;1742370;81;25810;-87
2021/09/30 08:03:55;;;;;;;26.62;18.30;;;;;;;13.51;80.25;98050.63;1743275;79;25997;-86
2021/09/30 08:06:21;;;;;;;30.08;19.45;;;;;;;13.51;80.27;98054.69;1759472;79;25870;-88
2021/09/30 08:08:48;;;;;;;30.52;20.35;;;;;;;13.48;80.17;98059.17;1759682;81;27411;-88
2021/09/30 08:11:14;;;;;;;28.30;20.50;;;;;;;13.42;80.12;98064.08;1754000;79;25815;-88
2021/09/30 08:13:41;;;;;;;28.47;19.12;;;;;;;13.36;80.23;98077.16;1756010;79;26414;-89
2021/09/30 08:16:08;;;;;;;29.65;20.72;;;;;;;13.32;80.10;98081.64;1760207;79;25673;-93
2021/09/30 08:18:35;;;;;;;30.00;20.23;;;;;;;13.24;79.98;98092.72;1751556;79;25728;-88
2021/09/30 08:21:01;;;;;;;28.98;19.92;;;;;;;13.15;79.94;98095.35;1739645;79;27525;-92
2021/09/30 08:23:28;;;;;;;24.32;18.12;;;;;;;13.01;79.76;98105.86;1746452;79;25805;-95
2021/09/30 08:25:55;;;;;;;24.75;17.80;;;;;;;12.91;79.87;98104.09;1743860;79;25783;-90
2021/09/30 08:28:21;;;;;;;23.18;16.25;;;;;;;12.89;79.87;98107.53;1738539;79;25542;-88
2021/09/30 08:30:52;;;;;;;22.85;15.98;;;;;;;12.87;79.70;98114.51;1742781;79;25922;-91
2021/09/30 08:33:24;;;;;;;18.90;15.23;;;;;;;12.77;79.57;98118.68;1733382;81;28450;-93
2021/09/30 08:35:47;;;;;;;18.10;14.05;;;;;;;12.68;79.67;98134.28;1740492;79;25748;-92
2021/09/30 08:38:14;;;;;;;19.98;13.68;;;;;;;12.65;79.52;98131.17;1751779;79;25939;-94
2021/09/30 08:40:41;;;;;;;19.35;13.83;;;;;;;12.65;79.50;98133.87;1755522;79;25879;-96
2021/09/30 08:43:08;;;;;;;18.40;13.43;;;;;;;12.61;79.46;98135.64;1743591;79;25815;-93
2021/09/30 08:45:34;;;;;;;17.73;13.13;;;;;;;12.56;79.58;98138.64;1746086;79;27491;-92
2021/09/30 08:48:04;;;;;;;17.32;12.58;;;;;;;12.56;79.55;98143.53;1743745;79;25740;-93
2021/09/30 08:50:40;;;;;;;19.25;12.80;;;;;;;12.54;79.65;98141.58;1741110;79;25809;-92
2021/09/30 08:53:03;;;;;;;19.90;12.47;;;;;;;12.54;79.63;98140.75;1755764;79;25561;-91
2021/09/30 08:55:30;;;;;;;18.20;13.03;;;;;;;12.58;79.70;98148.75;1740572;79;25809;-90
2021/09/30 08:57:56;;;;;;;17.90;12.63;;;;;;;12.62;79.61;98152.20;1758201;79;28293;-93
2021/09/30 09:00:23;;;;;;;23.75;12.70;;;;;;;12.65;79.44;98159.61;1759824;79;25735;-88
2021/09/30 09:02:52;;;;;;;19.02;12.50;;;;;;;12.56;79.25;98163.84;1751643;79;25676;-91
2021/09/30 09:05:20;;;;;;;19.60;12.07;;;;;;;12.54;79.09;98168.66;1738991;79;25728;-88
2021/09/30 09:07:57;;;;;;;18.30;12.63;;;;;;;12.54;79.10;98169.18;1754367;81;25672;-91
2021/09/30 09:10:30;;;;;;;17.25;12.98;;;;;;;12.52;79.06;98171.25;1753780;81;27388;-86
2021/09/30 09:13:13;;;;;;;18.95;12.47;;;;;;;12.53;79.16;98176.98;1733225;81;25959;-89
2021/09/30 09:15:47;;;;;;;17.80;12.65;;;;;;;12.54;79.13;98186.27;1733366;79;25845;-90
2021/09/30 09:18:18;;;;;;;18.30;13.20;;;;;;;12.57;79.08;98191.25;1733311;79;25720;-91
2021/09/30 09:20:50;;;;;;;19.15;12.88;;;;;;;12.60;79.14;98182.72;1736802;79;26338;-91
2021/09/30 09:23:16;;;;;;;22.87;13.28;;;;;;;12.56;79.12;98184.16;1743918;79;27506;-91
2021/09/30 09:25:43;;;;;;;18.82;12.30;;;;;;;12.58;79.37;98192.09;1757117;79;25703;-91
2021/09/30 09:28:10;;;;;;;16.73;12.13;;;;;;;12.53;79.40;98188.66;1745383;79;26428;-91
2021/09/30 09:30:51;;;;;;;15.70;10.90;;;;;;;12.55;79.46;98192.52;1747745;79;26249;-90
2021/09/30 09:33:27;;;;;;;18.42;12.05;;;;;;;12.57;79.29;98191.77;1763738;81;25757;-91
2021/09/30 09:36:20;;;;;;;16.48;11.48;;;;;;;12.50;79.25;98195.83;1763267;79;27553;-89
2021/09/30 09:38:50;;;;;;;15.63;11.80;;;;;;;12.49;79.38;98201.44;1737335;81;25841;-90
2021/09/30 09:41:36;;;;;;;17.42;12.70;;;;;;;12.50;79.58;98197.18;1754754;79;25755;-90
2021/09/30 09:44:00;;;;;;;;;;;;;;;12.49;79.48;98204.98;1765422;80;25747;-90
2021/09/30 09:46:35;;;;;;;16.97;12.18;;;;;;;12.48;79.40;98204.67;1763596;81;26412;-91
2021/09/30 09:49:09;;;;;;;18.95;12.30;;;;;;;12.49;79.39;98209.05;1755071;79;28197;-91
2021/09/30 09:51:45;;;;;;;17.65;11.93;;;;;;;12.49;79.35;98207.70;1763605;79;25835;-92
2021/09/30 09:54:14;;;;;;;15.63;11.63;;;;;;;12.49;79.48;98209.05;1763393;81;26494;-91
2021/09/30 09:56:42;;;;;;;17.20;12.35;;;;;;;12.48;79.69;98216.86;1763477;79;25757;-91
2021/09/30 09:59:09;;;;;;;19.07;12.47;;;;;;;12.52;79.87;98220.00;1763770;79;26415;-90
2021/09/30 10:01:43;;;;;;;17.87;12.95;;;;;;;12.54;79.91;98224.18;1763701;79;28112;-89
2021/09/30 10:04:12;;;;;;;18.52;12.40;;;;;;;12.55;79.80;98228.56;1762205;79;25871;-89
2021/09/30 10:06:40;;;;;;;16.17;11.83;;;;;;;12.57;79.64;98226.45;1754402;79;25886;-89
2021/09/30 10:09:11;;;;;;;18.23;12.13;;;;;;;12.57;79.53;98232.39;1714997;79;25712;-88
2021/09/30 10:11:38;;;;;;;17.07;12.33;;;;;;;12.56;79.66;98241.03;1758646;79;25826;-89
2021/09/30 10:14:07;;;;;;;18.30;12.70;;;;;;;12.48;79.30;98243.94;1759997;79;27414;-90
2021/09/30 10:16:36;;;;;;;17.98;13.25;;;;;;;12.43;79.48;98243.73;1763308;79;25752;-89
2021/09/30 10:19:07;;;;;;;17.82;13.10;;;;;;;12.47;79.66;98249.03;1759415;79;25770;-89
2021/09/30 10:21:37;;;;;;;18.30;12.73;;;;;;;12.47;79.73;98251.73;1735199;79;25753;-89
2021/09/30 10:24:18;;;;;;;20.23;12.30;;;;;;;12.49;79.86;98245.61;1742620;79;25700;-90
2021/09/30 10:26:58;;;;;;;17.80;11.05;;;;;;;12.55;79.70;98252.94;1707247;81;27581;-89
2021/09/30 10:29:47;;;;;;;41.73;18.80;;;;;;;12.54;79.19;98253.97;1751466;79;25878;-89
2021/09/30 10:32:18;;;;;;;23.10;13.75;;;;;;;12.56;78.91;98254.58;1759102;79;25767;-89
2021/09/30 10:34:48;;;;;;;32.08;16.75;;;;;;;12.55;79.13;98250.22;1750557;79;25946;-90
2021/09/30 10:37:30;;;;;;;22.48;14.45;;;;;;;12.53;79.27;98252.30;1739407;79;25795;-89
2021/09/30 10:40:20;;;;;;;18.10;12.00;;;;;;;12.52;79.16;98246.56;1739475;79;28115;-89
2021/09/30 10:42:55;;;;;;;19.15;11.33;;;;;;;12.54;79.04;98251.27;1757561;79;25752;-90
2021/09/30 10:45:38;;;;;;;18.70;11.50;;;;;;;12.54;79.01;98252.61;1728316;79;25815;-89
2021/09/30 10:48:07;;;;;;;19.23;11.97;;;;;;;12.57;79.01;98250.00;1722951;80;25748;-89
2021/09/30 10:50:48;;;;;;;17.00;11.10;;;;;;;12.61;78.98;98238.56;1729525;80;25696;-89
2021/09/30 10:53:14;;;;;;;19.07;10.35;;;;;;;12.67;78.82;98240.16;1746350;80;27468;-90
2021/09/30 10:55:41;;;;;;;16.55;10.58;;;;;;;12.70;78.81;98247.84;1724991;80;25799;-90
2021/09/30 10:58:24;;;;;;;21.33;10.70;;;;;;;12.72;78.71;98242.55;1723118;80;25681;-90
2021/09/30 11:00:57;;;;;;;19.23;10.20;;;;;;;12.73;78.56;98236.61;1723019;80;25737;-89
2021/09/30 11:03:26;;;;;;;16.07;9.68;;;;;;;12.73;78.40;98236.61;1722921;80;25808;-89
2021/09/30 11:06:15;;;;;;;15.38;9.90;;;;;;;12.75;78.33;98239.95;1723085;80;27554;-89
2021/09/30 11:08:44;;;;;;;46.68;19.87;;;;;;;12.75;78.22;98242.66;1722855;81;25777;-89
2021/09/30 11:11:13;;;;;;;62.70;22.45;;;;;;;12.75;78.21;98244.02;1743892;80;26401;-89
2021/09/30 11:14:00;;;;;;;46.90;19.42;;;;;;;12.72;78.19;98247.13;1723126;81;26061;-90
2021/09/30 11:16:34;;;;;;;51.45;21.77;;;;;;;12.69;78.48;98243.47;1752058;80;25779;-89
2021/09/30 11:19:02;;;;;;;35.20;17.87;;;;;;;12.67;78.44;98247.77;1725576;80;27440;-89
2021/09/30 11:21:35;;;;;;;25.32;14.50;;;;;;;12.66;78.63;98249.31;1748528;80;25792;-89
2021/09/30 11:24:25;;;;;;;21.23;12.63;;;;;;;12.65;78.80;98250.34;1722934;80;25726;-89
2021/09/30 11:26:58;;;;;;;18.07;11.40;;;;;;;12.63;78.71;98251.39;1751665;80;26415;-90
2021/09/30 11:29:30;;;;;;;17.17;10.50;;;;;;;12.67;78.68;98250.98;1734902;80;25701;-89
2021/09/30 11:32:05;;;;;;;16.50;11.03;;;;;;;12.63;78.65;98247.33;1728914;80;28265;-89
2021/09/30 11:34:36;;;;;;;14.05;10.28;;;;;;;12.60;78.90;98249.08;1734256;80;25375;-89
2021/09/30 11:37:25;;;;;;;18.10;12.27;;;;;;;12.58;79.05;98240.31;1695899;82;25701;-89
2021/09/30 11:39:55;;;;;;;16.60;10.88;;;;;;;12.55;79.14;98242.10;1715430;80;25927;-88
2021/09/30 11:42:25;;;;;;;19.75;10.68;;;;;;;12.54;79.28;98245.01;1700151;83;25784;-89
2021/09/30 11:45:04;;;;;;;18.00;11.88;;;;;;;12.55;79.45;98244.81;1733660;80;27493;-89
2021/09/30 11:47:32;;;;;;;15.05;10.15;;;;;;;12.56;79.19;98243.74;1744177;81;25873;-89
2021/09/30 11:50:03;;;;;;;16.37;9.73;;;;;;;12.53;79.24;98249.59;1741701;79;25783;-90
2021/09/30 11:52:30;;;;;;;15.30;9.78;;;;;;;12.51;79.20;98248.95;1757834;79;25736;-89
2021/09/30 11:55:16;;;;;;;14.85;9.70;;;;;;;12.53;79.05;98248.23;1762458;80;25736;-88
2021/09/30 11:57:52;;;;;;;12.88;8.75;;;;;;;12.53;78.91;98255.01;1746577;81;27489;-90
2021/09/30 12:00:20;;;;;;;13.20;7.85;;;;;;;12.53;78.80;98255.01;1762735;81;25733;-90
2021/09/30 12:03:07;;;;;;;11.97;8.28;;;;;;;12.54;78.50;98262.09;1751723;81;25695;-89
2021/09/30 12:05:38;;;;;;;13.38;8.38;;;;;;;12.54;78.33;98257.20;1744411;79;25758;-88
2021/09/30 12:08:06;;;;;;;13.28;9.10;;;;;;;12.54;78.09;98256.68;1755870;79;25878;-88
2021/09/30 12:10:37;;;;;;;21.50;11.33;;;;;;;12.53;77.85;98258.23;1739566;79;28211;-89
2021/09/30 12:13:19;;;;;;;17.40;11.93;;;;;;;12.52;77.78;98257.39;1753219;79;25929;-89
2021/09/30 12:15:48;;;;;;;16.12;10.68;;;;;;;12.49;77.87;98251.54;1755456;79;25908;-90
2021/09/30 12:18:20;;;;;;;14.60;8.50;;;;;;;12.46;78.03;98256.84;1762220;79;25955;-88
2021/09/30 12:20:50;;;;;;;10.63;6.67;;;;;;;12.44;78.09;98256.20;1757130;79;25666;-89
2021/09/30 12:23:17;;;;;;;9.50;6.50;;;;;;;12.43;78.04;98257.27;1759407;79;27364;-87
2021/09/30 12:25:44;;;;;;;11.68;5.87;;;;;;;12.41;77.74;98252.56;1750741;79;25806;-89
2021/09/30 12:28:11;;;;;;;8.05;5.45;;;;;;;12.38;77.58;98255.67;1746001;79;25694;-88
2021/09/30 12:30:39;;;;;;;8.75;5.90;;;;;;;12.37;77.53;98259.41;1718012;81;25746;-89
2021/09/30 12:33:05;;;;;;;7.70;5.55;;;;;;;12.36;77.43;98256.91;1741956;79;25291;-88
2021/09/30 12:35:37;;;;;;;12.65;7.65;;;;;;;12.32;77.31;98257.81;1762125;81;27975;-87
2021/09/30 12:38:16;;;;;;;17.87;9.93;;;;;;;12.26;77.32;98253.22;1751086;79;26325;-88
2021/09/30 12:40:46;;;;;;;15.65;7.85;;;;;;;12.24;77.29;98259.34;1756612;81;25815;-87
2021/09/30 12:43:20;;;;;;;10.15;7.25;;;;;;;12.16;77.53;98252.25;1733905;79;25775;-88
2021/09/30 12:46:01;;;;;;;12.68;7.42;;;;;;;12.15;77.70;98261.92;1718862;82;25859;-87
2021/09/30 12:48:30;;;;;;;11.63;7.70;;;;;;;12.11;77.83;98264.70;1709461;81;27440;-87
2021/09/30 12:51:05;;;;;;;14.93;8.28;;;;;;;12.09;77.98;98262.70;1694515;82;25720;-87
2021/09/30 12:53:41;;;;;;;15.90;8.83;;;;;;;12.08;78.10;98265.09;1724422;81;25736;-87
2021/09/30 12:56:12;;;;;;;14.33;9.88;;;;;;;12.08;78.14;98264.57;1718865;81;25904;-87
2021/09/30 12:58:42;;;;;;;25.75;13.03;;;;;;;12.08;78.08;98261.02;1704719;82;25957;-88
2021/09/30 13:01:34;;;;;;;22.20;13.90;;;;;;;12.05;78.21;98263.64;1683972;82;27338;-87
2021/09/30 13:04:25;;;;;;;22.50;11.97;;;;;;;12.02;78.20;98255.08;1715484;81;26011;-88
2021/09/30 13:07:06;;;;;;;15.60;9.58;;;;;;;11.99;78.30;98256.30;1730968;82;25720;-87
2021/09/30 13:09:37;;;;;;;15.30;9.45;;;;;;;11.90;78.26;98255.64;1680190;84;25792;-87
2021/09/30 13:12:14;;;;;;;17.40;10.03;;;;;;;11.85;78.29;98256.73;1731496;81;25833;-88
2021/09/30 13:14:53;;;;;;;15.05;10.72;;;;;;;11.80;78.33;98252.46;1686026;82;27399;-87
2021/09/30 13:17:25;;;;;;;14.13;9.75;;;;;;;11.76;78.49;98252.53;1711644;82;25823;-86
2021/09/30 13:20:04;;;;;;;14.23;8.35;;;;;;;11.75;78.57;98253.56;1723521;81;25851;-86
2021/09/30 13:22:43;;;;;;;12.53;8.85;;;;;;;11.74;78.52;98249.15;1731912;82;25856;-87
2021/09/30 13:25:15;;;;;;;19.90;10.90;;;;;;;11.71;78.44;98250.89;1707706;82;25677;-87
2021/09/30 13:27:44;;;;;;;16.87;11.25;;;;;;;11.71;78.67;98254.14;1724204;82;27347;-87
2021/09/30 13:30:18;;;;;;;16.73;11.20;;;;;;;11.71;78.69;98246.83;1722535;81;26062;-87
2021/09/30 13:32:46;;;;;;;19.42;11.20;;;;;;;11.70;78.68;98247.06;1713246;82;26362;-87
2021/09/30 13:35:17;;;;;;;17.35;10.00;;;;;;;11.71;78.64;98252.79;1727341;82;25993;-88
2021/09/30 13:37:45;;;;;;;18.23;9.33;;;;;;;11.70;78.64;98247.06;1731908;81;25824;-87
2021/09/30 13:40:12;;;;;;;15.45;9.95;;;;;;;11.69;78.43;98252.14;1720157;81;27362;-88
2021/09/30 13:42:40;;;;;;;14.40;8.58;;;;;;;11.66;78.52;98249.31;1726616;82;25811;-88
2021/09/30 13:45:11;;;;;;;16.52;8.30;;;;;;;11.58;78.46;98240.02;1715991;82;25793;-87
2021/09/30 13:47:38;;;;;;;11.25;6.92;;;;;;;11.57;78.63;98243.75;1729711;82;25758;-88
2021/09/30 13:50:09;;;;;;;10.65;6.12;;;;;;;11.58;78.52;98236.47;1729162;82;25323;-89
2021/09/30 13:52:36;;;;;;;9.50;5.85;;;;;;;11.59;78.56;98240.33;1706398;82;28544;-89
2021/09/30 13:55:03;;;;;;;9.68;6.15;;;;;;;11.60;78.44;98235.22;1721085;82;26303;-87
2021/09/30 13:57:33;;;;;;;12.20;6.62;;;;;;;11.63;78.45;98238.88;1702586;82;25916;-88
2021/09/30 13:59:58;;;;;;;9.45;6.40;;;;;;;11.68;78.51;98244.55;1696069;82;25713;-88
2021/09/30 14:02:25;;;;;;;9.88;6.28;;;;;;;11.73;78.34;98239.87;1719681;82;25632;-87
2021/09/30 14:04:51;;;;;;;13.25;7.30;;;;;;;11.74;78.26;98245.09;1729981;81;27354;-88
2021/09/30 14:07:18;;;;;;;17.90;9.45;;;;;;;11.71;78.40;98242.77;1706096;82;25773;-88
2021/09/30 14:09:45;;;;;;;16.07;10.08;;;;;;;11.71;78.24;98240.07;1701927;82;25820;-88